createdAt,value
2018-12-16T00:00:56.700Z,-1.30
2018-12-16T00:03:25.193Z,-1.20
2018-12-16T00:05:54.738Z,-1.20
2018-12-16T00:08:23.639Z,-1.10
2018-12-16T00:10:52.475Z,-1.10
2018-12-16T00:13:21.231Z,-1.10
2018-12-16T00:15:49.710Z,-1.10
2018-12-16T00:18:18.203Z,-1.10
2018-12-16T00:20:46.717Z,-1.10
2018-12-16T00:23:15.410Z,-1.10
2018-12-16T00:25:43.980Z,-1.20
2018-12-16T00:28:13.300Z,-1.10
2018-12-16T00:30:41.697Z,-1.10
2018-12-16T00:33:10.236Z,-1.10
2018-12-16T00:35:38.621Z,-1.00
2018-12-16T00:38:07.214Z,-1.10
2018-12-16T00:40:35.629Z,-0.90
2018-12-16T00:43:04.063Z,-1.00
2018-12-16T00:45:32.511Z,-1.10
2018-12-16T00:48:00.970Z,-1.00
2018-12-16T00:50:29.465Z,-0.90
2018-12-16T00:52:58.221Z,-1.00
2018-12-16T00:55:26.789Z,-1.00
2018-12-16T00:57:55.237Z,-1.00
2018-12-16T01:00:23.757Z,-1.00
2018-12-16T01:02:52.220Z,-1.00
2018-12-16T01:05:20.828Z,-0.90
2018-12-16T01:07:49.555Z,-0.90
2018-12-16T01:10:18.215Z,-0.90
2018-12-16T01:12:46.828Z,-1.00
2018-12-16T01:15:15.359Z,-1.00
2018-12-16T01:17:43.838Z,-1.00
2018-12-16T01:20:12.298Z,-1.00
2018-12-16T01:22:43.559Z,-0.90
2018-12-16T01:25:11.247Z,-1.10
2018-12-16T01:27:39.705Z,-1.00
2018-12-16T01:30:08.250Z,-0.90
2018-12-16T01:32:36.662Z,-1.00
2018-12-16T01:35:06.449Z,-1.10
2018-12-16T01:37:34.845Z,-1.00
2018-12-16T01:40:03.785Z,-0.90
2018-12-16T01:42:32.424Z,-0.90
2018-12-16T01:45:00.887Z,-0.90
2018-12-16T01:47:29.389Z,-1.00
2018-12-16T01:49:57.783Z,-0.90
2018-12-16T01:52:26.156Z,-0.90
2018-12-16T01:54:55.289Z,-0.90
2018-12-16T01:57:23.883Z,-1.00
2018-12-16T01:59:52.424Z,-0.90
2018-12-16T02:02:20.839Z,-0.80
2018-12-16T02:04:49.531Z,-0.90
2018-12-16T02:07:18.074Z,-0.80
2018-12-16T02:09:46.586Z,-0.70
2018-12-16T02:12:15.150Z,-0.80
2018-12-16T02:14:43.541Z,-0.80
2018-12-16T02:17:12.000Z,-0.80
2018-12-16T02:19:40.649Z,-0.80
2018-12-16T02:22:09.463Z,-0.80
2018-12-16T02:24:37.890Z,-0.70
2018-12-16T02:29:57.384Z,-0.90
2018-12-16T02:32:26.022Z,-0.80
2018-12-16T02:34:54.374Z,-0.90
2018-12-16T02:37:22.815Z,-0.80
2018-12-16T02:39:51.704Z,-0.80
2018-12-16T02:42:20.337Z,-0.70
2018-12-16T02:44:48.850Z,-0.70
2018-12-16T02:47:17.456Z,-0.70
2018-12-16T02:49:46.261Z,-0.70
2018-12-16T02:52:14.800Z,-0.70
2018-12-16T02:54:43.399Z,-0.60
2018-12-16T02:57:11.954Z,-0.60
2018-12-16T02:59:40.467Z,-0.60
2018-12-16T03:02:09.242Z,-0.60
2018-12-16T03:04:37.893Z,-0.70
2018-12-16T03:07:06.404Z,-0.70
2018-12-16T03:09:34.833Z,-0.70
2018-12-16T03:12:03.499Z,-0.80
2018-12-16T03:14:32.052Z,-0.80
2018-12-16T03:17:00.593Z,-0.70
2018-12-16T03:19:29.082Z,-0.60
2018-12-16T03:21:57.692Z,-0.60
2018-12-16T03:24:26.301Z,-0.60
2018-12-16T03:26:54.826Z,-0.60
2018-12-16T03:29:23.352Z,-0.60
2018-12-16T03:31:51.979Z,-0.60
2018-12-16T03:34:20.631Z,-0.50
2018-12-16T03:36:49.298Z,-0.60
2018-12-16T03:39:17.898Z,-0.60
2018-12-16T03:41:47.355Z,-0.60
2018-12-16T03:44:16.851Z,-0.70
2018-12-16T03:46:45.661Z,-0.60
2018-12-16T03:49:14.048Z,-0.60
2018-12-16T03:51:42.647Z,-0.70
2018-12-16T03:54:11.047Z,-0.80
2018-12-16T03:56:39.817Z,-0.80
2018-12-16T03:59:17.038Z,-1.00
2018-12-16T04:01:50.344Z,-1.00
2018-12-16T04:04:19.079Z,-1.00
2018-12-16T04:06:47.541Z,-1.00
2018-12-16T04:09:16.247Z,-0.90
2018-12-16T04:11:44.847Z,-0.90
2018-12-16T04:14:13.632Z,-0.90
2018-12-16T04:16:42.079Z,-0.90
2018-12-16T04:19:10.699Z,-1.10
2018-12-16T04:21:39.698Z,-1.10
2018-12-16T04:24:09.077Z,-1.10
2018-12-16T04:26:37.673Z,-1.00
2018-12-16T04:29:06.360Z,-0.90
2018-12-16T04:31:34.941Z,-1.00
2018-12-16T04:34:03.852Z,-0.90
2018-12-16T04:36:32.264Z,-1.00
2018-12-16T04:39:00.956Z,-1.00
2018-12-16T04:41:29.664Z,-1.00
2018-12-16T04:43:58.334Z,-1.00
2018-12-16T04:46:27.061Z,-1.00
2018-12-16T04:48:55.751Z,-1.10
2018-12-16T04:51:24.805Z,-1.00
2018-12-16T04:53:53.348Z,-1.00
2018-12-16T04:56:22.011Z,-1.00
2018-12-16T04:58:50.437Z,-1.00
2018-12-16T05:01:19.621Z,-1.00
2018-12-16T05:03:48.682Z,-0.90
2018-12-16T05:06:17.580Z,-0.90
2018-12-16T05:08:46.166Z,-0.80
2018-12-16T05:11:15.782Z,-0.80
2018-12-16T05:13:44.421Z,-0.90
2018-12-16T05:16:45.633Z,-0.90
2018-12-16T05:19:14.950Z,-0.90
2018-12-16T05:21:43.685Z,-0.90
2018-12-16T05:24:12.074Z,-1.00
2018-12-16T05:26:40.553Z,-0.90
2018-12-16T05:29:09.620Z,-0.90
2018-12-16T05:31:38.227Z,-0.90
2018-12-16T05:34:06.796Z,-0.80
2018-12-16T05:36:35.267Z,-0.80
2018-12-16T05:39:04.932Z,-0.80
2018-12-16T05:41:33.832Z,-0.90
2018-12-16T05:44:02.565Z,-0.80
2018-12-16T05:46:31.473Z,-0.80
2018-12-16T05:49:00.563Z,-0.90
2018-12-16T05:51:29.452Z,-0.80
2018-12-16T05:53:58.579Z,-0.80
2018-12-16T05:56:27.252Z,-0.90
2018-12-16T05:58:56.077Z,-0.80
2018-12-16T06:01:24.610Z,-0.70
2018-12-16T06:03:53.245Z,-0.80
2018-12-16T06:06:21.984Z,-0.80
2018-12-16T06:08:50.668Z,-0.80
2018-12-16T06:11:19.466Z,-0.80
2018-12-16T06:13:48.013Z,-0.70
2018-12-16T06:16:16.765Z,-0.60
2018-12-16T06:18:45.810Z,-0.60
2018-12-16T06:21:16.734Z,-0.60
2018-12-16T06:23:45.401Z,-0.60
2018-12-16T06:26:14.138Z,-0.60
2018-12-16T06:28:42.725Z,-0.60
2018-12-16T06:31:11.370Z,-0.60
2018-12-16T06:33:40.000Z,-0.70
2018-12-16T06:36:08.761Z,-0.60
2018-12-16T06:38:37.524Z,-0.50
2018-12-16T06:41:06.150Z,-0.50
2018-12-16T06:43:34.827Z,-0.40
2018-12-16T06:46:03.574Z,-0.20
2018-12-16T06:48:32.521Z,-0.20
2018-12-16T06:51:00.933Z,-0.20
2018-12-16T06:53:29.633Z,-0.20
2018-12-16T06:55:59.519Z,-0.30
2018-12-16T06:58:34.958Z,-0.40
2018-12-16T07:01:04.346Z,-0.40
2018-12-16T07:03:33.650Z,-0.50
2018-12-16T07:06:02.863Z,-0.50
2018-12-16T07:08:32.315Z,-0.50
2018-12-16T07:11:02.002Z,-0.60
2018-12-16T07:13:32.165Z,-0.70
2018-12-16T07:35:59.232Z,-0.70
2018-12-16T07:38:29.698Z,-0.60
2018-12-16T07:41:34.310Z,-0.50
2018-12-16T07:47:50.251Z,-0.60
2018-12-16T07:50:19.431Z,-0.50
2018-12-16T07:52:48.414Z,-0.50
2018-12-16T07:55:18.057Z,-0.50
2018-12-16T07:57:46.990Z,-0.50
2018-12-16T08:00:15.903Z,-0.40
2018-12-16T08:02:44.591Z,-0.30
2018-12-16T08:05:14.100Z,-0.30
2018-12-16T08:07:42.905Z,-0.30
2018-12-16T08:10:11.700Z,-0.20
2018-12-16T08:12:40.445Z,-0.20
2018-12-16T08:15:09.580Z,-0.20
2018-12-16T08:17:39.074Z,-0.20
2018-12-16T08:20:09.642Z,-0.10
2018-12-16T08:22:39.317Z,-0.10
2018-12-16T08:25:08.093Z,-0.10
2018-12-16T08:27:37.093Z,-0.10
2018-12-16T08:30:08.119Z,-0.10
2018-12-16T08:32:37.439Z,0.00
2018-12-16T08:35:07.673Z,0.00
2018-12-16T08:37:38.570Z,0.10
2018-12-16T08:40:08.455Z,0.20
2018-12-16T08:42:37.398Z,0.20
2018-12-16T08:45:07.802Z,0.20
2018-12-16T08:47:36.917Z,0.30
2018-12-16T08:50:07.499Z,0.50
2018-12-16T08:52:36.964Z,0.60
2018-12-16T08:55:05.740Z,0.70
2018-12-16T08:57:34.692Z,0.70
2018-12-16T09:00:03.829Z,0.70
2018-12-16T09:02:32.617Z,0.80
2018-12-16T09:05:01.965Z,0.90
2018-12-16T09:07:37.241Z,1.00
2018-12-16T09:10:02.675Z,1.00
2018-12-16T09:12:31.442Z,1.00
2018-12-16T09:15:00.240Z,1.00
2018-12-16T09:17:29.445Z,1.00
2018-12-16T09:19:59.897Z,1.10
2018-12-16T09:22:28.870Z,1.20
2018-12-16T09:24:57.547Z,1.30
2018-12-16T09:27:26.644Z,1.40
2018-12-16T09:29:56.316Z,1.50
2018-12-16T09:32:25.692Z,1.60
2018-12-16T09:34:57.486Z,1.70
2018-12-16T09:37:26.414Z,1.80
2018-12-16T09:39:55.072Z,1.80
2018-12-16T09:42:24.507Z,1.90
2018-12-16T09:44:57.106Z,1.90
2018-12-16T09:47:26.335Z,1.90
2018-12-16T09:49:55.777Z,1.90
2018-12-16T09:52:25.217Z,1.90
2018-12-16T09:57:26.201Z,2.00
2018-12-16T09:59:55.188Z,2.00
2018-12-16T10:02:24.056Z,2.10
2018-12-16T10:04:53.958Z,2.10
2018-12-16T10:07:23.045Z,2.10
2018-12-16T10:09:51.810Z,2.40
2018-12-16T10:12:20.539Z,2.30
2018-12-16T10:14:49.172Z,2.40
2018-12-16T10:17:18.279Z,2.60
2018-12-16T10:19:47.111Z,2.60
2018-12-16T10:22:15.837Z,2.80
2018-12-16T10:24:51.082Z,2.90
2018-12-16T10:27:15.314Z,2.90
2018-12-16T10:29:44.157Z,2.90
2018-12-16T10:32:13.062Z,2.80
2018-12-16T10:34:41.646Z,2.70
2018-12-16T10:37:10.434Z,2.80
2018-12-16T10:39:39.541Z,2.80
2018-12-16T10:42:08.306Z,2.80
2018-12-16T10:44:37.813Z,2.90
2018-12-16T10:47:06.729Z,2.90
2018-12-16T10:49:35.801Z,2.90
2018-12-16T10:52:05.014Z,2.80
2018-12-16T10:54:33.800Z,2.80
2018-12-16T10:57:02.587Z,2.70
2018-12-16T10:59:31.380Z,2.70
2018-12-16T11:01:59.965Z,2.70
2018-12-16T11:04:28.545Z,2.80
2018-12-16T11:06:57.136Z,2.90
2018-12-16T11:09:26.135Z,2.90
2018-12-16T11:11:55.003Z,2.90
2018-12-16T11:14:24.010Z,2.90
2018-12-16T11:16:53.349Z,3.00
2018-12-16T11:19:22.707Z,3.20
2018-12-16T11:21:51.582Z,3.60
2018-12-16T11:24:20.560Z,3.90
2018-12-16T11:26:49.319Z,4.00
2018-12-16T11:29:18.270Z,3.90
2018-12-16T11:31:47.384Z,3.80
2018-12-16T11:34:16.311Z,3.70
2018-12-16T11:36:45.271Z,3.70
2018-12-16T11:39:14.546Z,3.60
2018-12-16T11:41:43.720Z,3.50
2018-12-16T11:44:12.973Z,3.50
2018-12-16T11:46:41.912Z,3.50
2018-12-16T11:49:11.127Z,3.50
2018-12-16T11:51:40.438Z,3.60
2018-12-16T11:54:09.533Z,3.60
2018-12-16T11:56:38.067Z,3.70
2018-12-16T11:59:06.673Z,3.80
2018-12-16T12:01:35.986Z,3.90
2018-12-16T12:04:06.251Z,4.00
2018-12-16T12:09:33.750Z,4.20
2018-12-16T12:12:02.641Z,4.20
2018-12-16T12:14:31.445Z,4.20
2018-12-16T12:17:00.853Z,4.20
2018-12-16T12:19:37.113Z,4.30
2018-12-16T12:22:05.570Z,4.30
2018-12-16T12:24:33.212Z,4.30
2018-12-16T12:27:01.176Z,4.40
2018-12-16T12:29:29.114Z,4.60
2018-12-16T12:31:57.360Z,4.60
2018-12-16T12:34:25.031Z,4.70
2018-12-16T12:36:52.924Z,4.70
2018-12-16T12:39:21.202Z,4.80
2018-12-16T12:41:49.254Z,4.80
2018-12-16T12:44:18.233Z,4.80
2018-12-16T12:46:47.235Z,4.80
2018-12-16T12:49:15.157Z,4.70
2018-12-16T12:51:43.118Z,4.70
2018-12-16T12:54:11.199Z,4.60
2018-12-16T12:56:39.293Z,4.70
2018-12-16T12:59:07.256Z,4.70
2018-12-16T13:01:35.000Z,4.80
2018-12-16T13:04:03.265Z,4.80
2018-12-16T13:06:31.155Z,4.90
2018-12-16T13:09:00.263Z,4.90
2018-12-16T13:11:28.754Z,4.90
2018-12-16T13:13:56.681Z,4.80
2018-12-16T13:16:24.522Z,4.80
2018-12-16T13:18:52.523Z,4.70
2018-12-16T13:21:20.832Z,4.60
2018-12-16T13:23:49.393Z,4.50
2018-12-16T13:26:17.655Z,4.40
2018-12-16T13:28:46.406Z,4.40
2018-12-16T13:31:15.658Z,4.40
2018-12-16T13:33:43.821Z,4.50
2018-12-16T13:36:11.866Z,4.50
2018-12-16T13:38:40.036Z,4.60
2018-12-16T13:41:08.418Z,4.60
2018-12-16T13:43:37.243Z,4.50
2018-12-16T13:46:05.659Z,4.50
2018-12-16T13:48:34.318Z,4.40
2018-12-16T13:51:37.689Z,4.30
2018-12-16T13:54:12.135Z,4.20
2018-12-16T14:00:06.335Z,4.20
2018-12-16T14:02:40.360Z,4.10
2018-12-16T14:05:15.160Z,4.00
2018-12-16T14:07:49.607Z,3.90
2018-12-16T14:10:18.274Z,3.90
2018-12-16T14:12:47.035Z,3.80
2018-12-16T14:15:16.421Z,3.80
2018-12-16T14:17:45.748Z,3.80
2018-12-16T14:20:14.044Z,3.80
2018-12-16T14:22:41.952Z,3.80
2018-12-16T14:25:10.415Z,3.80
2018-12-16T14:27:38.496Z,3.80
2018-12-16T14:30:08.624Z,3.80
2018-12-16T14:32:37.199Z,3.80
2018-12-16T14:35:06.738Z,3.80
2018-12-16T14:37:34.850Z,3.70
2018-12-16T14:40:03.734Z,3.70
2018-12-16T14:42:32.401Z,3.70
2018-12-16T14:45:00.913Z,3.70
2018-12-16T14:47:28.820Z,3.60
2018-12-16T14:49:57.345Z,3.60
2018-12-16T14:52:25.584Z,3.50
2018-12-16T14:54:53.584Z,3.40
2018-12-16T14:57:21.738Z,3.30
2018-12-16T14:59:49.645Z,3.10
2018-12-16T15:02:17.821Z,3.00
2018-12-16T15:04:45.668Z,2.90
2018-12-16T15:07:13.666Z,2.90
2018-12-16T15:09:43.325Z,2.80
2018-12-16T15:12:12.114Z,2.70
2018-12-16T15:14:40.453Z,2.60
2018-12-16T15:17:09.128Z,2.60
2018-12-16T15:19:37.687Z,2.60
2018-12-16T15:22:06.257Z,2.60
2018-12-16T15:24:34.250Z,2.50
2018-12-16T15:27:02.048Z,2.50
2018-12-16T15:29:30.336Z,2.50
2018-12-16T15:31:58.187Z,2.50
2018-12-16T15:34:25.986Z,2.50
2018-12-16T15:36:54.082Z,2.50
2018-12-16T15:39:22.769Z,2.40
2018-12-16T15:41:50.315Z,2.40
2018-12-16T15:44:18.636Z,2.40
2018-12-16T15:46:47.684Z,2.40
2018-12-16T15:49:15.673Z,2.40
2018-12-16T15:51:43.444Z,2.30
2018-12-16T15:54:11.415Z,2.30
2018-12-16T15:56:39.328Z,2.30
2018-12-16T15:59:07.140Z,2.40
2018-12-16T16:01:35.107Z,2.40
2018-12-16T16:04:02.905Z,2.40
2018-12-16T16:06:31.893Z,2.40
2018-12-16T16:08:59.981Z,2.40
2018-12-16T16:11:28.010Z,2.30
2018-12-16T16:13:55.837Z,2.30
2018-12-16T16:16:24.455Z,2.40
2018-12-16T16:18:52.790Z,2.40
2018-12-16T16:21:20.817Z,2.40
2018-12-16T16:23:49.085Z,2.40
2018-12-16T16:26:16.944Z,2.40
2018-12-16T16:28:44.927Z,2.30
2018-12-16T16:31:12.851Z,2.30
2018-12-16T16:33:40.573Z,2.40
2018-12-16T16:36:08.964Z,2.40
2018-12-16T16:38:36.861Z,2.40
2018-12-16T16:41:04.880Z,2.40
2018-12-16T16:43:32.580Z,2.40
2018-12-16T16:46:00.402Z,2.30
2018-12-16T16:48:28.310Z,2.30
2018-12-16T16:50:56.464Z,2.20
2018-12-16T16:53:24.541Z,2.10
2018-12-16T16:55:52.173Z,2.10
2018-12-16T16:58:20.140Z,2.00
2018-12-16T17:00:48.001Z,2.00
2018-12-16T17:03:16.155Z,2.00
2018-12-16T17:05:44.050Z,1.90
2018-12-16T17:08:11.701Z,1.90
2018-12-16T17:10:39.300Z,1.90
2018-12-16T17:13:07.335Z,1.90
2018-12-16T17:15:35.232Z,1.90
2018-12-16T17:18:03.909Z,1.90
2018-12-16T17:20:32.279Z,1.80
2018-12-16T17:23:00.521Z,1.80
2018-12-16T17:25:28.739Z,1.70
2018-12-16T17:27:56.694Z,1.70
2018-12-16T17:30:26.102Z,1.70
2018-12-16T17:32:54.258Z,1.70
2018-12-16T17:35:22.241Z,1.70
2018-12-16T17:37:50.563Z,1.60
2018-12-16T17:40:18.471Z,1.60
2018-12-16T17:42:46.883Z,1.60
2018-12-16T17:45:14.527Z,1.50
2018-12-16T17:47:42.163Z,1.50
2018-12-16T17:50:10.374Z,1.50
2018-12-16T17:52:39.036Z,1.50
2018-12-16T17:55:07.432Z,1.50
2018-12-16T17:57:35.201Z,1.40
2018-12-16T18:00:03.957Z,1.40
2018-12-16T18:02:32.334Z,1.40
2018-12-16T18:05:00.262Z,1.40
2018-12-16T18:07:28.573Z,1.40
2018-12-16T18:09:56.687Z,1.40
2018-12-16T18:12:24.571Z,1.40
2018-12-16T18:14:52.731Z,1.30
2018-12-16T18:17:20.652Z,1.30
2018-12-16T18:19:48.411Z,1.40
2018-12-16T18:22:16.582Z,1.40
2018-12-16T18:24:44.601Z,1.40
2018-12-16T18:27:12.495Z,1.30
2018-12-16T18:29:40.286Z,1.30
2018-12-16T18:32:08.248Z,1.30
2018-12-16T18:34:36.437Z,1.30
2018-12-16T18:37:04.365Z,1.30
2018-12-16T18:39:31.914Z,1.30
2018-12-16T18:41:59.906Z,1.30
2018-12-16T18:44:28.197Z,1.40
2018-12-16T18:46:56.133Z,1.30
2018-12-16T18:49:24.418Z,1.30
2018-12-16T18:51:52.525Z,1.30
2018-12-16T18:54:24.417Z,1.40
2018-12-16T18:57:13.368Z,1.40
2018-12-16T18:59:56.757Z,1.40
2018-12-16T19:02:25.876Z,1.40
2018-12-16T19:04:53.714Z,1.50
2018-12-16T19:07:22.172Z,1.50
2018-12-16T19:09:50.284Z,1.50
2018-12-16T19:12:18.475Z,1.60
2018-12-16T19:14:47.210Z,1.60
2018-12-16T19:17:15.534Z,1.60
2018-12-16T19:19:43.805Z,1.60
2018-12-16T19:22:11.773Z,1.60
2018-12-16T19:24:39.794Z,1.60
2018-12-16T19:27:07.779Z,1.60
2018-12-16T19:29:35.933Z,1.60
2018-12-16T19:32:04.107Z,1.60
2018-12-16T19:34:33.120Z,1.60
2018-12-16T19:37:01.446Z,1.70
2018-12-16T19:39:29.524Z,1.70
2018-12-16T19:41:58.141Z,1.60
2018-12-16T19:44:26.127Z,1.60
2018-12-16T19:46:55.095Z,1.60
2018-12-16T19:49:23.672Z,1.60
2018-12-16T19:51:52.182Z,1.60
2018-12-16T19:54:20.999Z,1.60
2018-12-16T19:56:49.024Z,1.60
2018-12-16T19:59:17.486Z,1.60
2018-12-16T20:01:46.189Z,1.70
2018-12-16T20:04:19.282Z,1.70
2018-12-16T20:06:47.978Z,1.70
2018-12-16T20:09:16.566Z,1.70
2018-12-16T20:11:44.729Z,1.60
2018-12-16T20:14:13.029Z,1.60
2018-12-16T20:16:41.261Z,1.60
2018-12-16T20:19:09.894Z,1.60
2018-12-16T20:21:38.553Z,1.60
2018-12-16T20:24:09.576Z,1.60
2018-12-16T20:26:37.944Z,1.60
2018-12-16T20:29:05.974Z,1.60
2018-12-16T20:31:34.341Z,1.60
2018-12-16T20:34:02.994Z,1.50
2018-12-16T20:36:31.374Z,1.50
2018-12-16T20:38:59.619Z,1.50
2018-12-16T20:41:27.785Z,1.50
2018-12-16T20:43:56.071Z,1.40
2018-12-16T20:46:23.945Z,1.50
2018-12-16T20:48:52.196Z,1.40
2018-12-16T20:51:19.901Z,1.40
2018-12-16T20:53:48.017Z,1.40
2018-12-16T20:56:15.808Z,1.30
2018-12-16T20:58:43.861Z,1.40
2018-12-16T21:01:11.819Z,1.40
2018-12-16T21:03:39.844Z,1.40
2018-12-16T21:06:07.884Z,1.40
2018-12-16T21:08:35.794Z,1.40
2018-12-16T21:11:09.115Z,1.40
2018-12-16T21:13:42.727Z,1.40
2018-12-16T21:16:16.550Z,1.40
2018-12-16T21:18:44.794Z,1.40
2018-12-16T21:21:12.686Z,1.40
2018-12-16T21:23:40.615Z,1.40
2018-12-16T21:26:08.251Z,1.40
2018-12-16T21:28:36.167Z,1.40
2018-12-16T21:31:04.026Z,1.40
2018-12-16T21:33:31.992Z,1.40
2018-12-16T21:35:59.918Z,1.30
2018-12-16T21:38:27.812Z,1.30
2018-12-16T21:40:55.963Z,1.30
2018-12-16T21:43:24.042Z,1.30
2018-12-16T21:45:52.290Z,1.20
2018-12-16T21:48:20.099Z,1.20
2018-12-16T21:50:48.014Z,1.20
2018-12-16T21:53:15.868Z,1.20
2018-12-16T21:55:43.416Z,1.10
2018-12-16T21:58:11.277Z,1.10
2018-12-16T22:00:39.150Z,1.10
2018-12-16T22:03:07.142Z,1.10
2018-12-16T22:05:34.845Z,1.20
2018-12-16T22:08:02.947Z,1.20
2018-12-16T22:10:30.950Z,1.20
2018-12-16T22:12:58.779Z,1.20
2018-12-16T22:15:26.534Z,1.20
2018-12-16T22:17:54.092Z,1.20
2018-12-16T22:20:22.368Z,1.20
2018-12-16T22:22:50.196Z,1.20
2018-12-16T22:25:18.038Z,1.20
2018-12-16T22:27:46.076Z,1.30
2018-12-16T22:30:14.645Z,1.30
2018-12-16T22:32:42.504Z,1.30
2018-12-16T22:35:11.285Z,1.30
2018-12-16T22:37:39.021Z,1.30
2018-12-16T22:40:07.715Z,1.30
2018-12-16T22:42:35.814Z,1.30
2018-12-16T22:45:04.763Z,1.30
2018-12-16T22:47:32.701Z,1.30
2018-12-16T22:50:00.460Z,1.30
2018-12-16T22:52:28.102Z,1.30
2018-12-16T22:54:55.794Z,1.40
2018-12-16T22:57:23.517Z,1.40
2018-12-16T22:59:51.558Z,1.40
2018-12-16T23:02:19.256Z,1.30
2018-12-16T23:04:47.146Z,1.30
2018-12-16T23:07:14.870Z,1.30
2018-12-16T23:09:42.691Z,1.30
2018-12-16T23:12:10.265Z,1.30
2018-12-16T23:14:38.227Z,1.30
2018-12-16T23:17:05.772Z,1.20
2018-12-16T23:19:33.730Z,1.30
2018-12-16T23:22:01.473Z,1.30
2018-12-16T23:24:29.729Z,1.20
2018-12-16T23:26:57.522Z,1.10
2018-12-16T23:29:25.191Z,1.20
2018-12-16T23:31:52.678Z,1.10
2018-12-16T23:34:20.277Z,1.20
2018-12-16T23:36:48.088Z,1.20
2018-12-16T23:39:15.667Z,1.10
2018-12-16T23:41:43.511Z,1.10
2018-12-16T23:44:11.213Z,1.10
2018-12-16T23:46:39.246Z,1.10
2018-12-16T23:49:07.091Z,1.10
2018-12-16T23:51:34.805Z,1.10
2018-12-16T23:54:02.716Z,1.10
2018-12-16T23:56:30.663Z,1.10
2018-12-16T23:58:58.513Z,1.10
